createdAt,value
2016-09-07T00:00:05.048Z,88.13
2016-09-07T00:01:05.690Z,88.32
2016-09-07T00:02:06.307Z,88.61
2016-09-07T00:03:06.935Z,88.32
2016-09-07T00:04:07.581Z,88.27
2016-09-07T00:05:08.197Z,88.61
2016-09-07T00:06:08.818Z,88.8
2016-09-07T00:07:09.442Z,88.13
2016-09-07T00:08:10.062Z,88.56
2016-09-07T00:09:10.679Z,88.61
2016-09-07T00:10:11.305Z,88.7
2016-09-07T00:11:11.919Z,89.04
2016-09-07T00:12:12.537Z,88.42
2016-09-07T00:13:13.220Z,88.51
2016-09-07T00:14:13.871Z,88.13
2016-09-07T00:15:14.500Z,88.23
2016-09-07T00:16:15.124Z,88.23
2016-09-07T00:17:15.756Z,88.32
2016-09-07T00:18:16.372Z,88.13
2016-09-07T00:19:17.009Z,88.42
2016-09-07T00:20:17.613Z,87.84
2016-09-07T00:21:18.238Z,87.74
2016-09-07T00:22:18.862Z,87.74
2016-09-07T00:23:19.477Z,87.37
2016-09-07T00:24:20.110Z,87.08
2016-09-07T00:25:20.735Z,87.65
2016-09-07T00:26:21.345Z,87.17
2016-09-07T00:27:21.967Z,87.65
2016-09-07T00:28:22.585Z,87.37
2016-09-07T00:29:23.210Z,87.37
2016-09-07T00:30:23.842Z,86.69
2016-09-07T00:31:24.459Z,86.6
2016-09-07T00:32:25.088Z,86.5
2016-09-07T00:33:25.731Z,87.27
2016-09-07T00:34:26.358Z,86.98
2016-09-07T00:35:26.975Z,87.17
2016-09-07T00:36:27.612Z,87.55
2016-09-07T00:37:28.231Z,87.65
2016-09-07T00:38:28.885Z,87.46
2016-09-07T00:39:29.499Z,86.98
2016-09-07T00:40:30.136Z,86.88
2016-09-07T00:41:30.770Z,86.88
2016-09-07T00:42:31.424Z,86.88
2016-09-07T00:43:32.083Z,87.27
2016-09-07T00:44:32.705Z,87.84
2016-09-07T00:45:33.349Z,87.27
2016-09-07T00:46:33.966Z,86.88
2016-09-07T00:47:34.584Z,86.88
2016-09-07T00:48:35.217Z,86.69
2016-09-07T00:49:35.851Z,86.79
2016-09-07T00:50:36.481Z,87.17
2016-09-07T00:51:37.119Z,86.88
2016-09-07T00:52:37.782Z,87.08
2016-09-07T00:53:38.396Z,87.08
2016-09-07T00:54:39.024Z,87.27
2016-09-07T00:55:39.635Z,87.17
2016-09-07T00:56:40.263Z,87.27
2016-09-07T00:57:40.923Z,87.27
2016-09-07T00:58:41.550Z,87.55
2016-09-07T00:59:42.188Z,87.94
2016-09-07T01:00:42.795Z,87.94
2016-09-07T01:01:43.425Z,87.84
2016-09-07T01:02:44.052Z,88.37
2016-09-07T01:03:44.714Z,88.28
2016-09-07T01:04:45.325Z,88.28
2016-09-07T01:05:45.949Z,88.28
2016-09-07T01:06:46.572Z,87.99
2016-09-07T01:07:47.191Z,88.32
2016-09-07T01:08:47.814Z,88.56
2016-09-07T01:09:48.437Z,88.28
2016-09-07T01:10:49.063Z,88.28
2016-09-07T01:11:49.681Z,88.28
2016-09-07T01:12:50.306Z,88.28
2016-09-07T01:13:50.925Z,88.28
2016-09-07T01:14:51.550Z,88.18
2016-09-07T01:15:52.195Z,88.09
2016-09-07T01:16:52.839Z,88.18
2016-09-07T01:17:53.457Z,88.18
2016-09-07T01:18:54.074Z,88.09
2016-09-07T01:19:54.711Z,88.09
2016-09-07T01:20:55.336Z,87.9
2016-09-07T01:21:55.981Z,88.28
2016-09-07T01:22:56.601Z,88.66
2016-09-07T01:23:57.230Z,88.18
2016-09-07T01:24:57.853Z,88.66
2016-09-07T01:25:58.531Z,88.66
2016-09-07T01:26:59.148Z,88.95
2016-09-07T01:27:59.769Z,88.47
2016-09-07T01:29:00.389Z,88.56
2016-09-07T01:30:01.049Z,88.76
2016-09-07T01:31:01.678Z,88.28
2016-09-07T01:32:02.307Z,88.18
2016-09-07T01:33:02.928Z,88.37
2016-09-07T01:34:03.548Z,88.18
2016-09-07T01:35:04.187Z,88.37
2016-09-07T01:36:04.799Z,88.85
2016-09-07T01:37:05.413Z,88.56
2016-09-07T01:38:06.032Z,88.66
2016-09-07T01:39:06.662Z,89.04
2016-09-07T01:40:07.305Z,88.85
2016-09-07T01:41:07.953Z,88.56
2016-09-07T01:42:08.619Z,89.43
2016-09-07T01:43:09.242Z,88.95
2016-09-07T01:44:09.867Z,88.95
2016-09-07T01:45:10.502Z,89.04
2016-09-07T01:46:11.137Z,88.85
2016-09-07T01:47:11.769Z,88.66
2016-09-07T01:48:12.417Z,89.04
2016-09-07T01:49:13.059Z,89.14
2016-09-07T01:50:13.695Z,89.23
2016-09-07T01:51:14.347Z,89.62
2016-09-07T01:52:14.961Z,89.04
2016-09-07T01:53:15.582Z,89.52
2016-09-07T01:54:16.207Z,89.52
2016-09-07T01:55:16.845Z,89.23
2016-09-07T01:56:17.508Z,89.62
2016-09-07T01:57:18.147Z,89.52
2016-09-07T01:58:18.766Z,89.52
2016-09-07T01:59:19.409Z,89.33
2016-09-07T02:00:20.034Z,89.58
2016-09-07T02:01:20.675Z,89.38
2016-09-07T02:02:21.311Z,89.48
2016-09-07T02:03:21.947Z,90.34
2016-09-07T02:04:22.569Z,89.48
2016-09-07T02:05:23.220Z,90.34
2016-09-07T02:06:23.848Z,90.34
2016-09-07T02:07:24.482Z,90.39
2016-09-07T02:08:25.106Z,89.29
2016-09-07T02:09:25.752Z,89.67
2016-09-07T02:10:26.393Z,90.15
2016-09-07T02:11:27.014Z,90.05
2016-09-07T02:12:27.633Z,90.24
2016-09-07T02:13:28.254Z,90.15
2016-09-07T02:14:28.870Z,90.05
2016-09-07T02:15:29.493Z,90.05
2016-09-07T02:16:30.117Z,90.34
2016-09-07T02:17:30.738Z,90.15
2016-09-07T02:18:31.354Z,90.34
2016-09-07T02:19:31.974Z,90.09
2016-09-07T02:20:32.599Z,89.48
2016-09-07T02:21:33.243Z,89.72
2016-09-07T02:22:33.844Z,89.29
2016-09-07T02:23:34.458Z,89.76
2016-09-07T02:24:35.079Z,89.48
2016-09-07T02:25:35.702Z,90.15
2016-09-07T02:26:36.320Z,89.43
2016-09-07T02:27:36.942Z,89
2016-09-07T02:28:37.569Z,89.19
2016-09-07T02:29:38.260Z,89.09
2016-09-07T02:30:38.918Z,89
2016-09-07T02:31:39.586Z,89.76
2016-09-07T02:32:40.262Z,89.48
2016-09-07T02:33:40.880Z,89.29
2016-09-07T02:34:41.503Z,89.67
2016-09-07T02:35:42.122Z,89
2016-09-07T02:36:42.741Z,89
2016-09-07T02:37:43.360Z,89.09
2016-09-07T02:38:43.983Z,89.76
2016-09-07T02:39:44.607Z,89.48
2016-09-07T02:40:45.228Z,90.15
2016-09-07T02:41:45.851Z,90.15
2016-09-07T02:42:46.510Z,89.76
2016-09-07T02:43:47.131Z,89.67
2016-09-07T02:44:47.749Z,89.67
2016-09-07T02:45:48.371Z,89.29
2016-09-07T02:46:48.990Z,90.15
2016-09-07T02:47:49.620Z,89.76
2016-09-07T02:48:50.230Z,90.15
2016-09-07T02:49:50.863Z,89.86
2016-09-07T02:50:51.485Z,89.67
2016-09-07T02:51:52.106Z,89.29
2016-09-07T02:52:52.732Z,89.48
2016-09-07T02:53:53.377Z,90.24
2016-09-07T02:54:54.011Z,90.34
2016-09-07T02:55:54.638Z,90.24
2016-09-07T02:56:55.256Z,90.15
2016-09-07T02:57:55.894Z,90.34
2016-09-07T02:58:56.512Z,89.67
2016-09-07T02:59:57.147Z,89.38
2016-09-07T03:00:57.762Z,90.24
2016-09-07T03:01:58.379Z,90.24
2016-09-07T03:02:59.015Z,90.34
2016-09-07T03:03:59.640Z,89.58
2016-09-07T03:05:00.271Z,90.05
2016-09-07T03:06:00.895Z,89.86
2016-09-07T03:07:01.512Z,89.48
2016-09-07T03:08:02.146Z,89.58
2016-09-07T03:09:02.769Z,89.48
2016-09-07T03:10:03.392Z,89.19
2016-09-07T03:11:04.007Z,89.38
2016-09-07T03:12:04.641Z,89.67
2016-09-07T03:13:05.296Z,89.58
2016-09-07T03:14:05.920Z,90.15
2016-09-07T03:15:06.542Z,90.15
2016-09-07T03:16:07.191Z,90.34
2016-09-07T03:17:07.817Z,90.15
2016-09-07T03:18:08.452Z,90.05
2016-09-07T03:19:09.073Z,90.15
2016-09-07T03:20:09.705Z,90.34
2016-09-07T03:21:10.321Z,90.34
2016-09-07T03:22:10.942Z,90.34
2016-09-07T03:23:11.568Z,90.53
2016-09-07T03:24:12.214Z,90.34
2016-09-07T03:25:12.854Z,90.34
2016-09-07T03:26:13.469Z,90.15
2016-09-07T03:27:14.196Z,90.05
2016-09-07T03:28:14.820Z,89.86
2016-09-07T03:29:15.485Z,90.53
2016-09-07T03:30:16.105Z,90.53
2016-09-07T03:31:16.731Z,90.34
2016-09-07T03:32:17.364Z,90.44
2016-09-07T03:33:17.983Z,90.15
2016-09-07T03:34:18.619Z,90.34
2016-09-07T03:35:19.243Z,90.34
2016-09-07T03:36:19.870Z,89.86
2016-09-07T03:37:20.511Z,90.15
2016-09-07T03:38:21.138Z,90.15
2016-09-07T03:39:21.796Z,90.15
2016-09-07T03:40:22.417Z,89.86
2016-09-07T03:41:23.033Z,90.34
2016-09-07T03:42:23.696Z,90.15
2016-09-07T03:43:24.320Z,90.15
2016-09-07T03:44:24.942Z,90.24
2016-09-07T03:45:25.561Z,90.44
2016-09-07T03:46:26.178Z,90.34
2016-09-07T03:47:26.803Z,90.91
2016-09-07T03:48:27.447Z,90.91
2016-09-07T03:49:28.086Z,90.53
2016-09-07T03:50:28.714Z,90.24
2016-09-07T03:51:29.331Z,90.53
2016-09-07T03:52:29.952Z,90.53
2016-09-07T03:53:30.576Z,90.24
2016-09-07T03:54:31.199Z,89.86
2016-09-07T03:55:31.817Z,90.34
2016-09-07T03:56:32.448Z,90.34
2016-09-07T03:57:33.059Z,89.91
2016-09-07T03:58:33.679Z,90.24
2016-09-07T03:59:34.342Z,90.2
2016-09-07T04:00:34.974Z,90.15
2016-09-07T04:01:35.626Z,90.24
2016-09-07T04:02:36.247Z,90.34
2016-09-07T04:03:36.878Z,90.3
2016-09-07T04:04:37.491Z,90.2
2016-09-07T04:05:38.125Z,90.58
2016-09-07T04:06:38.751Z,90.2
2016-09-07T04:07:39.373Z,90.3
2016-09-07T04:08:40.042Z,90.2
2016-09-07T04:09:40.661Z,90.87
2016-09-07T04:10:41.269Z,90.3
2016-09-07T04:11:41.911Z,90.48
2016-09-07T04:12:42.585Z,91.16
2016-09-07T04:13:43.236Z,90.67
2016-09-07T04:14:43.882Z,90.58
2016-09-07T04:15:44.541Z,90.39
2016-09-07T04:16:45.176Z,90.01
2016-09-07T04:17:45.832Z,90.3
2016-09-07T04:18:46.471Z,90.48
2016-09-07T04:19:47.087Z,90.3
2016-09-07T04:20:47.700Z,90.39
2016-09-07T04:21:48.339Z,90.1
2016-09-07T04:22:48.954Z,90.1
2016-09-07T04:23:49.604Z,90.3
2016-09-07T04:24:50.227Z,90.39
2016-09-07T04:25:50.856Z,90.48
2016-09-07T04:26:51.471Z,90.01
2016-09-07T04:27:52.099Z,90.3
2016-09-07T04:28:52.930Z,90.3
2016-09-07T04:29:53.597Z,89.91
2016-09-07T04:30:54.206Z,90.3
2016-09-07T04:31:54.834Z,90.58
2016-09-07T04:32:55.462Z,91.06
2016-09-07T04:33:56.087Z,90.3
2016-09-07T04:34:56.705Z,90.48
2016-09-07T04:35:57.328Z,89.91
2016-09-07T04:36:57.948Z,90.48
2016-09-07T04:37:58.572Z,89.91
2016-09-07T04:38:59.199Z,90.48
2016-09-07T04:39:59.918Z,90.39
2016-09-07T04:41:00.574Z,90.3
2016-09-07T04:42:01.204Z,90.3
2016-09-07T04:43:01.862Z,90.1
2016-09-07T04:44:02.532Z,90.2
2016-09-07T04:45:03.154Z,90.3
2016-09-07T04:46:03.805Z,90.58
2016-09-07T04:47:04.439Z,90.1
2016-09-07T04:48:05.076Z,90.39
2016-09-07T04:49:05.701Z,90.01
2016-09-07T04:50:06.354Z,90.3
2016-09-07T04:51:06.992Z,91.06
2016-09-07T04:52:07.604Z,90.3
2016-09-07T04:53:08.218Z,90.67
2016-09-07T04:54:08.861Z,90.48
2016-09-07T04:55:09.580Z,91.06
2016-09-07T04:56:10.208Z,91.16
2016-09-07T04:57:10.841Z,90.48
2016-09-07T04:58:11.470Z,91.35
2016-09-07T04:59:12.093Z,90.2
2016-09-07T05:00:12.724Z,90.3
2016-09-07T05:01:13.422Z,90.87
2016-09-07T05:02:14.234Z,90.39
2016-09-07T05:03:14.898Z,90.87
2016-09-07T05:04:15.729Z,90.39
2016-09-07T05:05:16.569Z,90.77
2016-09-07T05:06:17.502Z,90.2
2016-09-07T05:07:18.318Z,90.3
2016-09-07T05:08:19.128Z,91.53
2016-09-07T05:09:19.934Z,90.3
2016-09-07T05:10:20.915Z,90.2
2016-09-07T05:11:22.044Z,90.48
2016-09-07T05:12:22.772Z,90.3
2016-09-07T05:13:23.498Z,90.67
2016-09-07T05:14:24.258Z,90.87
2016-09-07T05:15:25.066Z,90.48
2016-09-07T05:16:25.987Z,90.77
2016-09-07T05:17:26.972Z,90.87
2016-09-07T05:18:28.152Z,90.77
2016-09-07T05:19:28.707Z,90.2
2016-09-07T05:20:29.849Z,90.53
2016-09-07T05:21:30.494Z,90.44
2016-09-07T05:22:31.287Z,90.34
2016-09-07T05:23:31.968Z,90.39
2016-09-07T05:24:32.619Z,90.48
2016-09-07T05:25:33.843Z,90.53
2016-09-07T05:26:34.676Z,90.44
2016-09-07T05:27:35.370Z,89.95
2016-09-07T05:28:36.049Z,89.76
2016-09-07T05:29:36.733Z,89.48
2016-09-07T05:30:37.436Z,89.67
2016-09-07T05:31:38.356Z,90.15
2016-09-07T05:32:39.523Z,89.48
2016-09-07T05:33:40.566Z,89.76
2016-09-07T05:34:41.934Z,89.48
2016-09-07T05:35:42.864Z,88.9
2016-09-07T05:36:44.159Z,89.19
2016-09-07T05:37:45.403Z,88.81
2016-09-07T05:38:46.516Z,88.43
2016-09-07T05:39:48.470Z,88.62
2016-09-07T05:40:49.095Z,88.81
2016-09-07T05:41:50.012Z,88.62
2016-09-07T05:42:50.991Z,88.76
2016-09-07T05:43:52.092Z,88.18
2016-09-07T05:44:53.274Z,88.09
2016-09-07T05:45:54.602Z,87.9
2016-09-07T05:46:55.912Z,88.18
2016-09-07T05:47:56.798Z,88.09
2016-09-07T05:48:58.343Z,88.18
2016-09-07T05:50:00.406Z,87.9
2016-09-07T05:51:01.379Z,87.7
2016-09-07T05:52:02.568Z,87.99
2016-09-07T05:53:04.624Z,87.41
2016-09-07T05:54:05.871Z,87.32
2016-09-07T05:55:06.680Z,86.94
2016-09-07T05:56:08.109Z,86.74
2016-09-07T05:57:09.315Z,87.32
2016-09-07T05:58:10.520Z,86.98
2016-09-07T05:59:11.919Z,85.6
2016-09-07T06:00:12.555Z,86.74
2016-09-07T06:01:13.967Z,86.55
2016-09-07T06:02:15.989Z,86.46
2016-09-07T06:03:17.957Z,86.65
2016-09-07T06:04:18.812Z,86.36
2016-09-07T06:05:20.117Z,86.21
2016-09-07T06:06:20.804Z,85.93
2016-09-07T06:07:21.596Z,86.02
2016-09-07T06:08:22.692Z,85.93
2016-09-07T06:09:24.621Z,85.06
2016-09-07T06:10:25.647Z,84.39
2016-09-07T06:11:26.756Z,83.67
2016-09-07T06:12:27.530Z,82.85
2016-09-07T06:13:28.515Z,81.22
2016-09-07T06:14:29.437Z,80.07
2016-09-07T06:15:30.357Z,80.07
2016-09-07T06:16:31.434Z,79.63
2016-09-07T06:17:32.187Z,78.61
2016-09-07T06:18:32.969Z,77.65
2016-09-07T06:19:33.884Z,77.84
2016-09-07T06:20:34.911Z,77.71
2016-09-07T06:21:35.873Z,77.71
2016-09-07T06:22:36.739Z,77.17
2016-09-07T06:23:37.580Z,76.79
2016-09-07T06:24:38.472Z,77.17
2016-09-07T06:25:39.295Z,76.5
2016-09-07T06:26:40.062Z,76.59
2016-09-07T06:27:41.124Z,76.5
2016-09-07T06:28:42.070Z,75.57
2016-09-07T06:29:42.955Z,75
2016-09-07T06:30:43.802Z,75.1
2016-09-07T06:31:44.751Z,75.29
2016-09-07T06:32:45.659Z,74.27
2016-09-07T06:33:46.563Z,73.79
2016-09-07T06:34:47.379Z,73.79
2016-09-07T06:35:48.515Z,73.41
2016-09-07T06:36:49.456Z,72.67
2016-09-07T06:37:50.397Z,72.38
2016-09-07T06:38:51.409Z,71.91
2016-09-07T06:39:52.102Z,71.81
2016-09-07T06:40:52.926Z,72.06
2016-09-07T06:41:53.893Z,71.91
2016-09-07T06:42:54.854Z,71.87
2016-09-07T06:43:56.502Z,71.91
2016-09-07T06:44:57.354Z,71.71
2016-09-07T06:45:58.283Z,71.81
2016-09-07T06:46:59.320Z,71.23
2016-09-07T06:48:00.242Z,71.61
2016-09-07T06:49:01.000Z,71.23
2016-09-07T06:50:01.992Z,71.14
2016-09-07T06:51:02.947Z,70.21
2016-09-07T06:52:03.767Z,68.51
2016-09-07T06:53:04.811Z,67.45
2016-09-07T06:54:05.925Z,67.68
2016-09-07T06:55:06.712Z,66.04
2016-09-07T06:56:08.532Z,66.14
2016-09-07T06:57:09.712Z,65.56
2016-09-07T06:58:10.829Z,64.73
2016-09-07T06:59:11.965Z,64.15
2016-09-07T07:00:13.050Z,63.5
2016-09-07T07:01:13.894Z,63.02
2016-09-07T07:02:14.841Z,62.48
2016-09-07T07:03:17.189Z,61.51
2016-09-07T07:04:18.152Z,60.86
2016-09-07T07:05:18.990Z,60.28
2016-09-07T07:06:20.562Z,60.96
2016-09-07T07:07:21.725Z,60.31
2016-09-07T07:08:22.713Z,60.03
2016-09-07T07:09:23.333Z,59.64
2016-09-07T07:10:24.461Z,58.58
2016-09-07T07:11:25.494Z,58.68
2016-09-07T07:12:30.443Z,58.87
2016-09-07T07:13:31.863Z,59.83
2016-09-07T07:14:32.689Z,59.74
2016-09-07T07:15:33.546Z,59.8
2016-09-07T07:16:34.445Z,59.9
2016-09-07T07:17:35.200Z,60.48
2016-09-07T07:18:36.315Z,59.8
2016-09-07T07:19:37.186Z,59.8
2016-09-07T07:20:38.157Z,59.61
2016-09-07T07:21:39.105Z,59.03
2016-09-07T07:22:39.932Z,58.87
2016-09-07T07:23:40.807Z,58.77
2016-09-07T07:24:42.013Z,59.16
2016-09-07T07:25:43.214Z,58.77
2016-09-07T07:26:43.968Z,59.16
2016-09-07T07:27:45.088Z,58.19
2016-09-07T07:28:46.201Z,58.42
2016-09-07T07:29:47.115Z,58.58
2016-09-07T07:30:48.234Z,57.71
2016-09-07T07:31:49.639Z,57.9
2016-09-07T07:32:50.872Z,58.19
2016-09-07T07:33:51.784Z,58.39
2016-09-07T07:34:52.784Z,59.16
2016-09-07T07:35:54.109Z,59.13
2016-09-07T07:36:54.540Z,59.32
2016-09-07T07:37:55.362Z,59.9
2016-09-07T07:38:56.264Z,60.64
2016-09-07T07:39:57.119Z,61.41
2016-09-07T07:40:58.459Z,61.41
2016-09-07T07:41:59.685Z,60.77
2016-09-07T07:43:00.323Z,60.58
2016-09-07T07:44:01.838Z,60.48
2016-09-07T07:45:02.692Z,60.8
2016-09-07T07:46:03.239Z,59.83
2016-09-07T07:47:04.134Z,59.55
2016-09-07T07:48:04.885Z,59.71
2016-09-07T07:49:06.018Z,59.74
2016-09-07T07:50:07.127Z,59.83
2016-09-07T07:51:08.386Z,59.93
2016-09-07T07:52:09.201Z,59.28
2016-09-07T07:53:10.181Z,57.93
2016-09-07T07:54:11.275Z,57.93
2016-09-07T07:55:12.417Z,57.96
2016-09-07T07:56:13.666Z,56.71
2016-09-07T07:57:14.868Z,56.41
2016-09-07T07:58:16.022Z,57.38
2016-09-07T07:59:17.236Z,56.61
2016-09-07T08:00:18.347Z,55.83
2016-09-07T08:01:19.645Z,55.74
2016-09-07T08:02:20.449Z,56.13
2016-09-07T08:03:21.677Z,56.03
2016-09-07T08:04:22.846Z,55.67
2016-09-07T08:05:23.625Z,55.7
2016-09-07T08:06:24.761Z,54.51
2016-09-07T08:07:26.301Z,54.99
2016-09-07T08:08:27.439Z,54.35
2016-09-07T08:09:28.186Z,54.05
2016-09-07T08:10:29.649Z,53.99
2016-09-07T08:11:30.707Z,53.79
2016-09-07T08:12:31.540Z,53.96
2016-09-07T08:13:32.556Z,53.67
2016-09-07T08:14:33.314Z,53.47
2016-09-07T08:15:34.190Z,53.67
2016-09-07T08:16:35.216Z,54.05
2016-09-07T08:17:36.490Z,53.21
2016-09-07T08:18:37.582Z,52.82
2016-09-07T08:19:38.560Z,53.41
2016-09-07T08:20:39.392Z,53.31
2016-09-07T08:21:40.151Z,53.31
2016-09-07T08:22:41.841Z,52.8
2016-09-07T08:23:42.674Z,53.41
2016-09-07T08:24:54.379Z,53.11
2016-09-07T08:25:55.284Z,52.82
2016-09-07T08:26:56.164Z,52.63
2016-09-07T08:27:57.241Z,52.82
2016-09-07T08:28:58.570Z,52.92
2016-09-07T08:29:59.770Z,52.46
2016-09-07T08:31:01.013Z,52.27
2016-09-07T08:32:01.961Z,51.9
2016-09-07T08:33:02.741Z,52.08
2016-09-07T08:34:03.954Z,53.04
2016-09-07T08:35:05.030Z,52.36
2016-09-07T08:36:06.223Z,52.46
2016-09-07T08:37:06.932Z,51.78
2016-09-07T08:38:07.548Z,52.08
2016-09-07T08:39:08.210Z,52.46
2016-09-07T08:40:08.900Z,52.08
2016-09-07T08:41:09.550Z,51.4
2016-09-07T08:42:10.185Z,51.68
2016-09-07T08:43:10.820Z,51.78
2016-09-07T08:44:11.480Z,51.88
2016-09-07T08:45:12.132Z,51.78
2016-09-07T08:46:12.834Z,51.9
2016-09-07T08:47:13.493Z,51.72
2016-09-07T08:48:14.139Z,51.23
2016-09-07T08:49:14.771Z,51.5
2016-09-07T08:50:15.408Z,53.02
2016-09-07T08:51:16.042Z,54.15
2016-09-07T08:52:16.697Z,53.69
2016-09-07T08:53:17.365Z,53.99
2016-09-07T08:54:17.995Z,53.99
2016-09-07T08:55:18.658Z,54.08
2016-09-07T08:56:19.299Z,54.08
2016-09-07T08:57:19.951Z,53.86
2016-09-07T08:58:20.608Z,54.05
2016-09-07T08:59:21.250Z,54.17
2016-09-07T09:00:21.889Z,54.27
2016-09-07T09:01:22.535Z,53.53
2016-09-07T09:02:23.180Z,52.58
2016-09-07T09:03:23.841Z,51.88
2016-09-07T09:04:24.478Z,53.02
2016-09-07T09:05:25.189Z,53.67
2016-09-07T09:06:25.850Z,54.8
2016-09-07T09:07:26.524Z,54.25
2016-09-07T09:08:27.164Z,53.86
2016-09-07T09:09:27.828Z,53.59
2016-09-07T09:10:28.484Z,53.81
2016-09-07T09:11:29.129Z,53.14
2016-09-07T09:12:29.777Z,52.95
2016-09-07T09:13:30.440Z,51.98
2016-09-07T09:14:31.090Z,52.17
2016-09-07T09:15:31.734Z,53.04
2016-09-07T09:16:32.368Z,53.23
2016-09-07T09:17:33.007Z,53.02
2016-09-07T09:18:33.664Z,53.31
2016-09-07T09:19:34.343Z,53.02
2016-09-07T09:20:34.996Z,53.21
2016-09-07T09:21:35.658Z,54.27
2016-09-07T09:22:36.313Z,53.14
2016-09-07T09:23:37.024Z,53.11
2016-09-07T09:24:37.598Z,54.08
2016-09-07T09:25:38.336Z,53.89
2016-09-07T09:26:39.127Z,54.08
2016-09-07T09:27:39.957Z,54.27
2016-09-07T09:28:40.631Z,54.85
2016-09-07T09:29:41.576Z,55.24
2016-09-07T09:30:42.483Z,54.85
2016-09-07T09:31:43.366Z,55.7
2016-09-07T09:32:44.548Z,56.25
2016-09-07T09:34:27.922Z,56.63
2016-09-07T09:35:28.565Z,57.6
2016-09-07T09:36:29.238Z,57.7
2016-09-07T09:37:30.000Z,57.77
2016-09-07T09:38:30.686Z,58.25
2016-09-07T09:39:31.304Z,57.87
2016-09-07T09:40:31.953Z,58.61
2016-09-07T09:41:32.705Z,59
2016-09-07T09:42:33.417Z,59.28
2016-09-07T09:43:34.094Z,58.42
2016-09-07T09:44:34.771Z,59.48
2016-09-07T09:45:35.593Z,59.83
2016-09-07T09:46:36.235Z,60.51
2016-09-07T09:47:36.873Z,60.31
2016-09-07T09:48:37.509Z,60.25
2016-09-07T09:49:38.137Z,60.61
2016-09-07T09:50:38.775Z,60.22
2016-09-07T09:51:39.420Z,61.09
2016-09-07T09:52:40.050Z,61.28
2016-09-07T09:53:40.692Z,61.09
2016-09-07T09:54:41.572Z,61.47
2016-09-07T09:55:42.287Z,60.8
2016-09-07T09:56:42.936Z,62.05
2016-09-07T09:57:43.557Z,62.82
2016-09-07T09:58:44.177Z,62.44
2016-09-07T09:59:44.803Z,62.54
2016-09-07T10:00:45.450Z,63.02
2016-09-07T10:01:46.078Z,63.21
2016-09-07T10:02:46.764Z,63.02
2016-09-07T10:03:47.412Z,63.4
2016-09-07T10:04:48.059Z,62.63
2016-09-07T10:05:48.698Z,62.73
2016-09-07T10:06:49.362Z,62.73
2016-09-07T10:07:49.998Z,62.63
2016-09-07T10:08:50.648Z,62.92
2016-09-07T10:09:51.271Z,63.5
2016-09-07T10:10:51.909Z,63.12
2016-09-07T10:11:52.571Z,63.21
2016-09-07T10:12:53.213Z,63.02
2016-09-07T10:13:53.981Z,63.12
2016-09-07T10:14:54.637Z,63.21
2016-09-07T10:15:55.298Z,63.6
2016-09-07T10:16:57.207Z,63.89
2016-09-07T10:17:57.941Z,63.85
2016-09-07T10:18:58.585Z,63.85
2016-09-07T10:19:59.217Z,65.01
2016-09-07T10:20:59.872Z,64.92
2016-09-07T10:22:00.501Z,64.92
2016-09-07T10:23:01.151Z,64.82
2016-09-07T10:24:01.804Z,64.72
2016-09-07T10:25:02.520Z,64.47
2016-09-07T10:26:03.159Z,64.08
2016-09-07T10:27:03.804Z,64.95
2016-09-07T10:28:04.450Z,64.28
2016-09-07T10:29:05.090Z,64.82
2016-09-07T10:30:05.738Z,64.08
2016-09-07T10:31:06.420Z,63.98
2016-09-07T10:32:07.053Z,64.18
2016-09-07T10:33:07.688Z,63.5
2016-09-07T10:34:08.338Z,63.79
2016-09-07T10:35:09.015Z,62.34
2016-09-07T10:36:09.658Z,62.25
2016-09-07T10:37:10.302Z,62.34
2016-09-07T10:38:10.934Z,62.34
2016-09-07T10:39:11.560Z,62.15
2016-09-07T10:40:12.266Z,61.57
2016-09-07T10:41:12.836Z,60.61
2016-09-07T10:42:13.504Z,61.09
2016-09-07T10:43:14.146Z,61.67
2016-09-07T10:44:14.804Z,61.28
2016-09-07T10:45:15.477Z,61.47
2016-09-07T10:46:16.106Z,60.51
2016-09-07T10:47:16.770Z,60.51
2016-09-07T10:48:17.409Z,61.38
2016-09-07T10:49:18.044Z,61.77
2016-09-07T10:50:18.704Z,60.61
2016-09-07T10:51:19.341Z,61.28
2016-09-07T10:52:20.011Z,60.51
2016-09-07T10:53:20.683Z,58.19
2016-09-07T10:54:21.342Z,59.06
2016-09-07T10:55:22.009Z,59.83
2016-09-07T10:56:22.662Z,58.1
2016-09-07T10:57:23.303Z,58
2016-09-07T10:58:23.952Z,58.1
2016-09-07T10:59:24.598Z,55.78
2016-09-07T11:00:25.225Z,56.07
2016-09-07T11:01:25.860Z,56.84
2016-09-07T11:02:26.508Z,57.62
2016-09-07T11:03:27.148Z,56.26
2016-09-07T11:04:27.955Z,55.88
2016-09-07T11:05:28.615Z,55.01
2016-09-07T11:06:29.286Z,52.98
2016-09-07T11:07:29.920Z,53.27
2016-09-07T11:08:30.556Z,54.43
2016-09-07T11:09:31.190Z,54.24
2016-09-07T11:10:31.839Z,53.75
2016-09-07T11:11:32.488Z,54.05
2016-09-07T11:12:33.132Z,55.59
2016-09-07T11:13:33.848Z,56.74
2016-09-07T11:14:34.727Z,55.4
2016-09-07T11:15:35.508Z,55.1
2016-09-07T11:16:36.315Z,54.82
2016-09-07T11:17:36.964Z,56.07
2016-09-07T11:18:37.615Z,55.88
2016-09-07T11:19:38.285Z,56.84
2016-09-07T11:20:38.926Z,57.32
2016-09-07T11:21:39.565Z,57.35
2016-09-07T11:22:40.201Z,56.68
2016-09-07T11:23:40.843Z,57.74
2016-09-07T11:24:41.501Z,57.04
2016-09-07T11:25:42.171Z,57.81
2016-09-07T11:26:42.809Z,57.52
2016-09-07T11:27:43.492Z,58.19
2016-09-07T11:28:44.115Z,58.29
2016-09-07T11:29:44.756Z,57.74
2016-09-07T11:30:45.373Z,57.93
2016-09-07T11:31:46.027Z,58.48
2016-09-07T11:32:46.692Z,58
2016-09-07T11:33:47.342Z,57.9
2016-09-07T11:34:48.027Z,57.71
2016-09-07T11:35:48.709Z,58.29
2016-09-07T11:36:49.382Z,58.61
2016-09-07T11:37:50.028Z,58.48
2016-09-07T11:38:51.802Z,58.1
2016-09-07T11:39:52.425Z,58.39
2016-09-07T11:40:53.167Z,58.48
2016-09-07T11:41:54.016Z,58.58
2016-09-07T11:42:54.945Z,58
2016-09-07T11:43:55.970Z,57.81
2016-09-07T11:44:56.896Z,58.19
2016-09-07T11:45:57.338Z,58
2016-09-07T11:46:58.180Z,57.42
2016-09-07T11:47:59.112Z,56.46
2016-09-07T11:48:59.833Z,55.78
2016-09-07T11:50:00.493Z,56.74
2016-09-07T11:51:01.157Z,57.42
2016-09-07T11:52:01.794Z,57.62
2016-09-07T11:53:02.437Z,57.52
2016-09-07T11:54:03.094Z,57.32
2016-09-07T11:55:03.710Z,57.71
2016-09-07T11:56:04.555Z,58
2016-09-07T11:57:05.390Z,57.32
2016-09-07T11:58:06.050Z,57.52
2016-09-07T11:59:06.675Z,56.74
2016-09-07T12:00:07.307Z,56.56
2016-09-07T12:01:07.940Z,56.65
2016-09-07T12:02:09.076Z,56.77
2016-09-07T12:03:09.718Z,56.87
2016-09-07T12:04:10.350Z,56.68
2016-09-07T12:05:11.010Z,56.65
2016-09-07T12:06:11.647Z,56.77
2016-09-07T12:07:12.370Z,55.04
2016-09-07T12:08:13.079Z,54.84
2016-09-07T12:09:13.903Z,53.69
2016-09-07T12:10:14.580Z,54.94
2016-09-07T12:11:15.220Z,53.56
2016-09-07T12:12:16.008Z,53.47
2016-09-07T12:13:16.543Z,54.05
2016-09-07T12:14:17.181Z,55.01
2016-09-07T12:15:17.839Z,54.84
2016-09-07T12:16:18.526Z,55.04
2016-09-07T12:17:19.162Z,55.42
2016-09-07T12:18:20.026Z,55.33
2016-09-07T12:19:20.749Z,55.62
2016-09-07T12:20:21.407Z,55.9
2016-09-07T12:21:22.047Z,55.59
2016-09-07T12:22:22.703Z,56.16
2016-09-07T12:23:23.335Z,54.91
2016-09-07T12:24:23.974Z,53.75
2016-09-07T12:25:24.635Z,53.17
2016-09-07T12:26:25.276Z,52.89
2016-09-07T12:27:25.906Z,53.08
2016-09-07T12:28:26.530Z,53.2
2016-09-07T12:29:27.155Z,53.3
2016-09-07T12:30:27.816Z,52.33
2016-09-07T12:31:28.447Z,52.04
2016-09-07T12:32:29.123Z,50.21
2016-09-07T12:33:29.798Z,50.79
2016-09-07T12:34:30.459Z,51.07
2016-09-07T12:35:31.132Z,50.11
2016-09-07T12:36:31.810Z,50.89
2016-09-07T12:37:32.469Z,52.33
2016-09-07T12:38:33.089Z,53.01
2016-09-07T12:39:33.716Z,52.31
2016-09-07T12:40:34.344Z,52.4
2016-09-07T12:41:34.974Z,51.07
2016-09-07T12:42:35.601Z,51.27
2016-09-07T12:43:36.269Z,51.37
2016-09-07T12:44:36.923Z,50.98
2016-09-07T12:45:37.555Z,50.79
2016-09-07T12:46:38.180Z,50.89
2016-09-07T12:47:38.821Z,51.56
2016-09-07T12:48:39.465Z,51.65
2016-09-07T12:49:40.128Z,52.33
2016-09-07T12:50:40.769Z,53.01
2016-09-07T12:51:41.411Z,52.91
2016-09-07T12:52:42.039Z,52.43
2016-09-07T12:53:42.678Z,52.33
2016-09-07T12:54:43.333Z,51.27
2016-09-07T12:55:43.957Z,50.98
2016-09-07T12:56:44.593Z,49.63
2016-09-07T12:57:45.245Z,49.44
2016-09-07T12:58:45.880Z,49.63
2016-09-07T12:59:46.504Z,49.92
2016-09-07T13:00:47.165Z,49.34
2016-09-07T13:01:47.791Z,50.69
2016-09-07T13:02:48.419Z,50.69
2016-09-07T13:03:49.036Z,51.27
2016-09-07T13:04:49.681Z,51.75
2016-09-07T13:05:50.321Z,52.23
2016-09-07T13:06:50.958Z,51.85